Time;durP1;ratioP1;P1;durP2;ratioP2;P2;SDS_P1;SDS_P2;PMS_P1;PMS_P2;Temp;Humidity;BMP_temperature;BMP_pressure;BME280_temperature;BME280_humidity;BME280_pressure;Samples;Min_cycle;Max_cycle;Signal;HPM_P1;HPM_P2
2022/02/20 00:00:51;;;;;;;1.95;1.75;;;;;;;5.48;53.45;99097.09;1560484;90;21071;-81
2022/02/20 00:03:18;;;;;;;5.28;2.45;;;;;;;5.47;53.54;99122.13;1582855;89;31655;-80
2022/02/20 00:05:45;;;;;;;4.65;2.40;;;;;;;5.47;53.60;99110.13;1600060;88;21040;-80
2022/02/20 00:08:12;;;;;;;2.52;2.00;;;;;;;5.47;53.70;99099.45;1562971;90;21093;-83
2022/02/20 00:10:39;;;;;;;5.42;2.72;;;;;;;5.47;53.62;99098.64;1591312;88;20988;-80
2022/02/20 00:13:06;;;;;;;4.33;2.37;;;;;;;5.47;53.69;99130.13;1588640;90;21136;-83
2022/02/20 00:15:33;;;;;;;4.55;2.05;;;;;;;5.48;53.66;99119.75;1598931;88;21038;-83
2022/02/20 00:18:02;;;;;;;3.55;1.98;;;;;;;5.50;53.71;99108.87;1598675;88;21063;-82
2022/02/20 00:20:31;;;;;;;3.25;2.22;;;;;;;5.49;53.73;99126.72;1588728;90;21106;-83
2022/02/20 00:23:00;;;;;;;6.40;3.98;;;;;;;5.49;53.72;99099.23;1589013;90;21552;-83
2022/02/20 00:25:31;;;;;;;3.83;2.08;;;;;;;5.49;53.70;99110.72;1597532;88;21066;-81
2022/02/20 00:27:55;;;;;;;3.17;2.10;;;;;;;5.49;53.73;99108.05;1601779;88;21031;-83
2022/02/20 00:30:21;;;;;;;2.65;2.08;;;;;;;5.47;53.75;99132.80;1588691;90;21064;-79
2022/02/20 00:32:52;;;;;;;3.35;1.82;;;;;;;5.47;53.76;99122.64;1562500;90;21019;-80
2022/02/20 00:35:20;;;;;;;2.50;1.77;;;;;;;5.46;53.93;99113.86;1563189;90;38542;-81
2022/02/20 00:37:46;;;;;;;5.75;2.52;;;;;;;5.44;54.00;99169.27;1589057;90;21105;-83
2022/02/20 00:40:14;;;;;;;5.00;2.50;;;;;;;5.41;54.00;99124.41;1588948;90;21093;-77
2022/02/20 00:42:40;;;;;;;6.03;2.37;;;;;;;5.42;54.14;99133.22;1589108;90;21562;-72
2022/02/20 00:45:07;;;;;;;3.75;2.20;;;;;;;5.40;54.20;99136.62;1582853;89;21215;-77
2022/02/20 00:47:34;;;;;;;4.37;2.40;;;;;;;5.40;54.34;99134.77;1588608;90;21043;-72
2022/02/20 00:50:00;;;;;;;3.60;3.15;;;;;;;5.39;54.41;99130.47;1582886;90;21544;-71
2022/02/20 00:52:28;;;;;;;9.75;3.05;;;;;;;5.39;54.47;99132.32;1562516;90;20996;-71
2022/02/20 00:54:54;;;;;;;4.72;2.33;;;;;;;5.36;54.58;99182.94;1588601;90;21019;-85
2022/02/20 00:57:21;;;;;;;4.35;2.42;;;;;;;5.36;54.62;99136.80;1588421;90;21324;-88
2022/02/20 00:59:48;;;;;;;3.00;2.12;;;;;;;5.36;54.69;99145.61;1586486;90;21092;-79
2022/02/20 01:02:15;;;;;;;3.17;2.27;;;;;;;5.37;54.70;99167.75;1560498;90;21051;-76
2022/02/20 01:04:42;;;;;;;7.30;2.33;;;;;;;5.34;54.76;99158.34;1587060;90;21073;-76
2022/02/20 01:07:08;;;;;;;4.28;2.37;;;;;;;5.34;54.86;99145.02;1558630;90;21139;-76
2022/02/20 01:09:36;;;;;;;6.70;2.25;;;;;;;5.33;54.98;99152.71;1592899;89;21162;-75
2022/02/20 01:12:05;;;;;;;3.65;2.58;;;;;;;5.31;55.11;99147.33;1612595;89;20990;-74
2022/02/20 01:14:32;;;;;;;5.03;2.60;;;;;;;5.28;55.16;99168.06;1550912;90;21035;-78
2022/02/20 01:16:59;;;;;;;5.17;2.42;;;;;;;5.27;55.29;99164.31;1560467;90;21092;-72
2022/02/20 01:19:25;;;;;;;6.78;2.45;;;;;;;5.24;55.37;99176.74;1585553;90;21080;-77
2022/02/20 01:21:52;;;;;;;2.77;2.20;;;;;;;5.21;55.53;99171.36;1586583;90;21148;-74
2022/02/20 01:24:18;;;;;;;6.30;2.72;;;;;;;5.18;55.66;99195.00;1586496;90;21073;-75
2022/02/20 01:26:45;;;;;;;6.37;2.20;;;;;;;5.15;55.75;99171.45;1586676;89;21069;-79
2022/02/20 01:29:12;;;;;;;2.27;1.70;;;;;;;5.13;55.89;99188.99;1585209;90;21257;-80
2022/02/20 01:31:39;;;;;;;4.62;2.25;;;;;;;5.12;56.00;99195.91;1586489;90;21053;-80
2022/02/20 01:34:05;;;;;;;5.30;2.20;;;;;;;5.11;56.10;99199.09;1587385;90;21529;-80
2022/02/20 01:36:32;;;;;;;3.40;1.90;;;;;;;5.10;56.20;99195.30;1586931;90;21079;-76
2022/02/20 01:39:00;;;;;;;3.95;2.37;;;;;;;5.08;56.29;99224.05;1541801;90;21354;-74
2022/02/20 01:41:27;;;;;;;6.42;2.72;;;;;;;5.08;56.40;99212.06;1586386;90;21116;-75
2022/02/20 01:43:54;;;;;;;3.55;2.40;;;;;;;5.07;56.43;99213.91;1579192;90;21049;-74
2022/02/20 01:46:21;;;;;;;2.27;2.05;;;;;;;5.08;56.52;99221.38;1558785;90;21097;-73
2022/02/20 01:48:48;;;;;;;5.47;2.50;;;;;;;5.09;56.60;99229.13;1578854;90;21738;-73
2022/02/20 01:51:17;;;;;;;5.25;2.85;;;;;;;5.09;56.62;99222.98;1586067;89;21649;-73
2022/02/20 01:53:44;;;;;;;3.52;1.95;;;;;;;5.07;56.73;99223.23;1558664;90;21135;-80
2022/02/20 01:56:11;;;;;;;4.30;2.17;;;;;;;5.07;56.83;99213.09;1586676;88;21143;-78
2022/02/20 01:58:58;;;;;;;7.67;2.60;;;;;;;5.06;56.89;99226.93;1530475;91;21148;-77
2022/02/20 02:01:30;;;;;;;7.03;2.65;;;;;;;5.07;56.98;99235.74;1504699;93;21130;-77
2022/02/20 02:04:04;;;;;;;3.52;2.25;;;;;;;5.04;57.03;99239.66;1535294;90;21600;-77
2022/02/20 02:06:36;;;;;;;4.62;2.37;;;;;;;5.04;57.03;99229.52;1580935;89;21015;-78
2022/02/20 02:09:04;;;;;;;7.45;4.05;;;;;;;5.05;57.19;99237.30;1613141;88;21525;-78
2022/02/20 02:11:49;;;;;;;5.45;2.40;;;;;;;5.03;57.21;99224.73;1575361;90;21738;-76
2022/02/20 02:14:23;;;;;;;3.60;2.08;;;;;;;5.04;57.26;99246.84;1581019;88;21566;-76
2022/02/20 02:17:03;;;;;;;3.92;2.62;;;;;;;5.04;57.30;99264.97;1592107;88;21033;-76
2022/02/20 02:19:34;;;;;;;4.67;2.10;;;;;;;5.03;57.38;99242.05;1562285;90;21176;-74
2022/02/20 02:22:21;;;;;;;4.33;2.33;;;;;;;5.02;57.45;99240.42;1588057;90;21686;-77
2022/02/20 02:24:49;;;;;;;7.28;4.87;;;;;;;5.02;57.62;99264.91;1578836;90;21390;-75
2022/02/20 02:27:17;;;;;;;4.62;2.20;;;;;;;5.01;57.66;99248.63;1587510;90;21050;-76
2022/02/20 02:29:47;;;;;;;6.10;2.22;;;;;;;5.00;57.80;99251.80;1582580;89;22219;-80
2022/02/20 02:32:13;;;;;;;4.53;2.55;;;;;;;4.97;57.84;99246.13;1587182;90;21867;-80
2022/02/20 02:34:41;;;;;;;2.77;2.00;;;;;;;4.95;58.06;99264.98;1562993;90;21077;-78
2022/02/20 02:37:10;;;;;;;5.17;2.42;;;;;;;4.94;58.10;99245.25;1543950;89;22502;-77
2022/02/20 02:39:38;;;;;;;6.65;2.75;;;;;;;4.94;58.14;99243.91;1599802;88;21095;-78
2022/02/20 02:42:10;;;;;;;3.35;2.25;;;;;;;4.93;58.25;99255.09;1608192;88;21060;-80
2022/02/20 02:44:39;;;;;;;;;;;;;;;4.92;58.34;99247.31;1585742;90;21007;-80
2022/02/20 02:47:07;;;;;;;4.60;2.27;;;;;;;4.92;58.39;99258.78;1588229;90;20501;-79
2022/02/20 02:49:41;;;;;;;6.22;4.05;;;;;;;4.89;58.44;99259.24;1543898;90;21193;-79
2022/02/20 02:52:08;;;;;;;4.85;2.75;;;;;;;4.89;58.53;99253.09;1588460;90;21102;-81
2022/02/20 02:57:11;;;;;;;4.45;2.45;;;;;;;4.82;58.74;99249.17;1588820;90;21024;-76
2022/02/20 02:59:40;;;;;;;4.47;2.30;;;;;;;4.80;58.83;99258.70;1589767;89;20978;-83
2022/02/20 03:02:07;;;;;;;4.08;2.22;;;;;;;4.79;58.92;99274.42;1589959;89;21894;-77
2022/02/20 03:04:35;;;;;;;3.98;2.12;;;;;;;4.75;59.18;99273.73;1572436;89;21563;-79
2022/02/20 03:07:04;;;;;;;7.65;2.87;;;;;;;4.72;59.24;99276.84;1548001;90;21599;-79
2022/02/20 03:09:34;;;;;;;4.00;2.50;;;;;;;4.72;59.24;99276.84;1589730;89;21050;-78
2022/02/20 03:12:00;;;;;;;6.95;3.05;;;;;;;4.70;59.33;99263.73;1594926;89;21103;-79
2022/02/20 03:14:28;;;;;;;4.47;2.33;;;;;;;4.65;59.59;99275.58;1598596;89;21096;-77
2022/02/20 03:16:55;;;;;;;7.67;2.87;;;;;;;4.65;59.59;99275.58;1576132;89;21611;-78
2022/02/20 03:19:22;;;;;;;5.85;2.90;;;;;;;4.63;59.66;99274.18;1598622;89;20977;-80
2022/02/20 03:21:49;;;;;;;5.45;3.08;;;;;;;4.62;59.93;99284.53;1579325;90;21548;-80
2022/02/20 03:24:17;;;;;;;5.85;2.77;;;;;;;4.62;59.93;99284.53;1598455;89;21585;-78
2022/02/20 03:26:46;;;;;;;7.12;3.10;;;;;;;4.61;59.97;99286.38;1590584;89;21614;-79
2022/02/20 03:29:13;;;;;;;5.87;2.70;;;;;;;4.60;60.00;99301.27;1589667;90;21115;-78
2022/02/20 03:31:40;;;;;;;3.95;2.35;;;;;;;4.62;60.04;99299.18;1570523;89;21506;-79
2022/02/20 03:34:07;;;;;;;5.87;3.12;;;;;;;4.57;60.16;99297.69;1598760;89;21068;-79
2022/02/20 03:36:34;;;;;;;4.62;2.33;;;;;;;4.56;60.23;99296.88;1567885;90;21555;-78
2022/02/20 03:39:03;;;;;;;6.62;2.83;;;;;;;4.56;60.32;99298.72;1589795;89;21524;-78
2022/02/20 03:41:30;;;;;;;4.30;2.75;;;;;;;4.56;60.40;99300.05;1593941;89;21498;-79
2022/02/20 03:43:56;;;;;;;4.20;2.20;;;;;;;4.52;60.51;99297.54;1575699;89;21111;-81
2022/02/20 03:46:25;;;;;;;10.03;2.58;;;;;;;4.52;60.64;99295.69;1596651;89;21100;-78
2022/02/20 03:48:53;;;;;;;4.85;2.52;;;;;;;4.50;60.74;99295.63;1595690;89;21146;-91
2022/02/20 03:51:21;;;;;;;10.15;3.58;;;;;;;4.48;60.81;99288.37;1593874;89;21109;-79
2022/02/20 03:53:48;;;;;;;8.63;5.10;;;;;;;4.46;60.78;99300.56;1592065;89;21570;-78
2022/02/20 03:56:14;;;;;;;4.67;2.90;;;;;;;4.39;61.27;99293.17;1591165;89;21083;-76
2022/02/20 03:58:42;;;;;;;6.22;3.17;;;;;;;4.39;61.27;99293.17;1589907;89;21086;-87
2022/02/20 04:01:09;;;;;;;4.85;2.75;;;;;;;4.36;61.38;99298.40;1587544;90;22541;-91
2022/02/20 04:03:41;;;;;;;9.45;3.35;;;;;;;4.34;61.43;99303.14;1560809;90;21309;-89
2022/02/20 04:06:08;;;;;;;4.70;2.77;;;;;;;4.32;61.57;99306.53;1585636;90;21083;-91
2022/02/20 04:08:36;;;;;;;8.20;3.05;;;;;;;4.30;61.68;99305.95;1566143;90;20993;-91
2022/02/20 04:11:06;;;;;;;6.60;2.40;;;;;;;4.27;61.84;99309.03;1570352;90;21021;-92
2022/02/20 04:13:37;;;;;;;5.62;2.80;;;;;;;4.27;62.05;99314.87;1560886;90;22192;-82
2022/02/20 04:16:06;;;;;;;10.78;2.80;;;;;;;4.23;62.23;99325.14;1560976;90;21593;-82
2022/02/20 04:18:35;;;;;;;5.60;2.90;;;;;;;4.22;62.36;99326.72;1585299;90;21095;-80
2022/02/20 04:21:06;;;;;;;7.00;3.77;;;;;;;4.20;62.50;99323.44;1542098;90;21117;-77
2022/02/20 04:23:33;;;;;;;4.47;3.08;;;;;;;4.18;62.52;99318.33;1560933;90;21024;-76
2022/02/20 04:26:01;;;;;;;4.72;3.72;;;;;;;4.17;62.71;99314.57;1561343;90;21039;-77
2022/02/20 04:28:32;;;;;;;4.03;2.83;;;;;;;4.15;62.83;99313.96;1585795;90;21899;-76
2022/02/20 04:30:58;;;;;;;8.48;3.02;;;;;;;4.13;62.90;99319.48;1585342;90;21086;-76
2022/02/20 04:33:26;;;;;;;6.67;3.00;;;;;;;4.10;63.05;99327.92;1561183;92;20987;-76
2022/02/20 04:35:55;;;;;;;8.75;3.10;;;;;;;4.08;63.15;99327.82;1546090;90;21120;-76
2022/02/20 04:38:21;;;;;;;8.75;2.67;;;;;;;4.05;63.29;99316.30;1585743;90;21578;-76
2022/02/20 04:40:48;;;;;;;4.45;2.85;;;;;;;4.02;63.36;99317.55;1586849;90;21596;-80
2022/02/20 04:43:16;;;;;;;8.23;3.58;;;;;;;4.00;63.48;99319.60;1585181;90;21786;-79
2022/02/20 04:45:43;;;;;;;19.92;5.17;;;;;;;3.99;63.53;99325.95;1585416;90;21091;-79
2022/02/20 04:48:13;;;;;;;7.00;2.92;;;;;;;3.98;63.58;99311.55;1585302;90;21617;-80
2022/02/20 04:50:41;;;;;;;6.28;3.55;;;;;;;3.97;63.66;99325.88;1585779;90;21036;-81
2022/02/20 04:53:13;;;;;;;4.75;3.00;;;;;;;3.94;63.79;99327.11;1585227;89;22003;-81
2022/02/20 04:55:43;;;;;;;5.83;3.10;;;;;;;3.94;63.82;99319.12;1585555;90;21584;-78
2022/02/20 04:58:10;;;;;;;3.80;3.27;;;;;;;3.93;63.90;99327.63;1585498;90;21154;-78
2022/02/20 05:00:39;;;;;;;6.78;3.10;;;;;;;3.90;63.99;99328.06;1585959;90;21143;-78
2022/02/20 05:03:16;;;;;;;4.03;2.85;;;;;;;3.89;64.06;99346.37;1560394;90;21098;-78
2022/02/20 05:05:47;;;;;;;;;;;;;;;3.87;64.22;99360.94;1588600;90;21179;-78
2022/02/20 05:08:14;;;;;;;4.22;2.72;;;;;;;3.84;64.27;99346.20;1587253;90;20190;-78
2022/02/20 05:10:43;;;;;;;3.72;2.75;;;;;;;3.82;64.47;99346.13;1560940;90;21051;-79
2022/02/20 05:13:12;;;;;;;7.72;3.15;;;;;;;3.81;64.51;99352.48;1586890;90;21091;-77
2022/02/20 05:15:47;;;;;;;3.65;3.35;;;;;;;3.81;64.58;99359.95;1586747;90;21045;-78
2022/02/20 05:18:12;;;;;;;8.35;3.67;;;;;;;3.79;64.68;99359.33;1561615;90;21185;-82
2022/02/20 05:20:42;;;;;;;4.42;2.70;;;;;;;3.79;64.76;99366.52;1540402;90;21072;-78
2022/02/20 05:23:10;;;;;;;5.87;3.42;;;;;;;3.78;64.86;99366.22;1587223;90;21545;-80
2022/02/20 05:25:38;;;;;;;5.12;2.83;;;;;;;3.76;64.93;99374.40;1561937;90;21063;-77
2022/02/20 05:28:06;;;;;;;7.10;3.15;;;;;;;3.75;65.02;99378.59;1587482;90;21051;-76
2022/02/20 05:30:35;;;;;;;8.53;2.67;;;;;;;3.75;64.94;99382.07;1568141;90;21129;-80
2022/02/20 05:33:03;;;;;;;6.50;3.37;;;;;;;3.76;64.92;99386.37;1586017;90;21012;-84
2022/02/20 05:35:31;;;;;;;8.70;3.17;;;;;;;3.76;64.92;99382.89;1581594;90;21056;-81
2022/02/20 05:37:59;;;;;;;5.87;2.62;;;;;;;3.73;64.97;99388.13;1560824;90;21099;-82
2022/02/20 05:40:27;;;;;;;5.45;3.40;;;;;;;3.73;64.95;99385.47;1586803;90;21588;-83
2022/02/20 05:43:00;;;;;;;7.55;3.33;;;;;;;3.72;64.94;99405.11;1586628;90;21137;-84
2022/02/20 05:45:26;;;;;;;8.80;3.62;;;;;;;3.74;64.95;99396.93;1587050;90;20968;-78
2022/02/20 05:47:54;;;;;;;6.70;3.83;;;;;;;3.72;64.92;99393.14;1587043;90;21083;-81
2022/02/20 05:50:22;;;;;;;4.67;3.25;;;;;;;3.73;64.94;99400.61;1560950;90;21126;-81
2022/02/20 05:52:49;;;;;;;8.20;3.77;;;;;;;3.74;64.90;99394.27;1560895;90;21126;-82
2022/02/20 05:55:17;;;;;;;8.78;4.08;;;;;;;3.75;64.89;99400.69;1560977;90;21155;-79
2022/02/20 05:57:49;;;;;;;5.65;3.83;;;;;;;3.74;64.87;99402.25;1560952;90;21073;-81
2022/02/20 06:00:25;;;;;;;5.65;3.33;;;;;;;3.74;64.80;99410.23;1563539;91;21052;-81
2022/02/20 06:02:58;;;;;;;4.47;3.37;;;;;;;3.75;64.78;99419.30;1563598;91;21150;-84
2022/02/20 06:05:26;;;;;;;8.85;3.33;;;;;;;3.77;64.75;99411.12;1571404;90;21083;-80
2022/02/20 06:08:09;;;;;;;5.30;2.98;;;;;;;3.78;64.74;99423.40;1550709;90;21172;-84
2022/02/20 06:10:54;;;;;;;6.50;3.58;;;;;;;3.78;64.78;99429.54;1583408;90;20928;-77
2022/02/20 06:13:23;;;;;;;6.00;3.58;;;;;;;3.80;64.76;99426.64;1577714;90;21074;-79
2022/02/20 06:15:52;;;;;;;5.20;3.30;;;;;;;3.81;64.75;99425.11;1553569;90;22379;-79
2022/02/20 06:18:25;;;;;;;8.60;3.20;;;;;;;3.80;64.64;99424.80;1586407;90;21114;-79
2022/02/20 06:21:00;;;;;;;6.00;3.62;;;;;;;3.81;64.71;99438.92;1534915;91;21322;-80
2022/02/20 06:23:32;;;;;;;4.67;3.35;;;;;;;3.82;64.61;99450.69;1540930;91;21087;-80
2022/02/20 06:26:16;;;;;;;4.12;2.92;;;;;;;3.83;64.57;99447.01;1579512;90;21116;-77
2022/02/20 06:28:45;;;;;;;8.85;3.55;;;;;;;3.85;64.58;99434.80;1587122;90;21151;-79
2022/02/20 06:31:13;;;;;;;5.67;2.67;;;;;;;3.86;64.58;99451.89;1587094;90;21069;-80
2022/02/20 06:33:43;;;;;;;7.40;2.52;;;;;;;3.88;64.47;99453.02;1587242;90;22730;-84
2022/02/20 06:36:13;;;;;;;4.55;2.98;;;;;;;3.91;64.49;99473.87;1586911;90;21083;-80
2022/02/20 06:38:43;;;;;;;4.08;2.35;;;;;;;3.91;64.33;99461.89;1586905;90;20965;-79
2022/02/20 06:41:12;;;;;;;5.67;2.65;;;;;;;3.93;64.37;99457.19;1560631;90;21867;-79
2022/02/20 06:43:48;;;;;;;5.25;3.20;;;;;;;3.95;64.24;99465.25;1560340;90;21066;-83
2022/02/20 06:46:25;;;;;;;3.77;2.62;;;;;;;3.95;64.20;99457.78;1571052;90;21139;-81
2022/02/20 06:49:03;;;;;;;5.85;3.52;;;;;;;3.97;64.19;99453.08;1560186;90;21143;-84
2022/02/20 06:51:36;;;;;;;6.67;2.58;;;;;;;3.99;64.26;99456.31;1560298;90;21088;-84
2022/02/20 06:54:10;;;;;;;4.00;2.67;;;;;;;4.01;64.22;99462.26;1586330;90;21052;-82
2022/02/20 06:56:48;;;;;;;4.58;2.70;;;;;;;4.04;64.17;99463.66;1585958;90;21128;-83
2022/02/20 06:59:15;;;;;;;5.37;2.77;;;;;;;4.08;64.10;99471.00;1560987;90;21108;-84
2022/02/20 07:01:41;;;;;;;4.58;2.87;;;;;;;4.12;64.09;99482.87;1587257;89;21627;-83
2022/02/20 07:04:09;;;;;;;6.62;2.62;;;;;;;4.13;64.03;99467.19;1577985;90;21100;-87
2022/02/20 07:06:36;;;;;;;4.75;3.35;;;;;;;4.16;63.91;99492.06;1563220;90;21177;-83
2022/02/20 07:09:02;;;;;;;8.13;3.33;;;;;;;4.17;63.79;99475.59;1562542;91;21126;-81
2022/02/20 07:11:31;;;;;;;4.45;3.10;;;;;;;4.18;63.68;99478.02;1562637;91;21047;-86
2022/02/20 07:14:00;;;;;;;7.42;3.52;;;;;;;4.17;63.61;99487.02;1562351;91;21073;-86
2022/02/20 07:16:27;;;;;;;3.92;2.72;;;;;;;4.17;63.68;99464.94;1537061;91;21577;-82
2022/02/20 07:18:53;;;;;;;5.85;2.60;;;;;;;4.17;63.63;99493.67;1534676;91;21104;-82
2022/02/20 07:21:24;;;;;;;6.42;4.03;;;;;;;4.19;63.72;99486.81;1553729;91;21072;-80
2022/02/20 07:23:53;;;;;;;6.80;3.42;;;;;;;4.22;63.68;99493.06;1559316;91;21167;-81
2022/02/20 07:26:19;;;;;;;5.53;3.05;;;;;;;4.25;63.34;99512.08;1567022;90;21133;-81
2022/02/20 07:28:46;;;;;;;3.98;2.50;;;;;;;4.29;63.08;99491.16;1587277;90;21541;-82
2022/02/20 07:31:13;;;;;;;5.45;3.40;;;;;;;4.32;63.27;99484.89;1567191;90;21064;-90
2022/02/20 07:33:41;;;;;;;5.97;3.02;;;;;;;4.36;63.15;99483.97;1545529;90;21166;-86
2022/02/20 07:36:08;;;;;;;4.95;2.62;;;;;;;4.37;63.24;99470.42;1562437;91;21853;-86
2022/02/20 07:38:36;;;;;;;6.30;2.58;;;;;;;4.41;63.29;99481.48;1586968;90;21147;-84
2022/02/20 07:41:04;;;;;;;3.72;2.55;;;;;;;4.44;63.18;99485.03;1549031;90;21199;-83
2022/02/20 07:43:31;;;;;;;5.10;3.50;;;;;;;4.47;62.98;99497.91;1575139;90;21031;-85
2022/02/20 07:45:57;;;;;;;6.45;3.08;;;;;;;4.49;63.04;99492.38;1539069;93;21106;-89
2022/02/20 07:48:23;;;;;;;5.90;2.83;;;;;;;4.53;63.04;99489.06;1564774;90;21090;-87
2022/02/20 07:50:50;;;;;;;2.72;2.35;;;;;;;4.58;63.01;99503.06;1580864;90;21052;-89
2022/02/20 07:53:17;;;;;;;2.58;2.37;;;;;;;4.61;62.94;99491.45;1585880;90;21198;-87
2022/02/20 07:55:44;;;;;;;4.08;2.67;;;;;;;4.67;62.91;99496.44;1564044;90;21082;-87
2022/02/20 07:58:12;;;;;;;4.92;3.15;;;;;;;4.70;62.70;99469.38;1515950;91;21041;-90
2022/02/20 08:00:40;;;;;;;5.87;2.65;;;;;;;4.72;62.78;99458.80;1562677;91;22321;-84
2022/02/20 08:03:09;;;;;;;3.70;2.30;;;;;;;4.83;62.71;99446.63;1577633;90;21595;-83
2022/02/20 08:05:37;;;;;;;3.58;2.87;;;;;;;4.83;62.71;99446.63;1580809;89;21118;-82
2022/02/20 08:08:04;;;;;;;5.25;3.10;;;;;;;4.90;62.58;99458.02;1561375;90;21075;-81
2022/02/20 08:10:32;;;;;;;2.45;2.15;;;;;;;4.98;62.44;99460.42;1517665;92;21017;-81
2022/02/20 08:12:59;;;;;;;6.95;4.20;;;;;;;5.01;61.65;99467.97;1534697;92;21980;-79
2022/02/20 08:15:27;;;;;;;5.17;2.58;;;;;;;5.04;60.93;99454.71;1510534;94;21102;-73
2022/02/20 08:17:54;;;;;;;5.97;2.92;;;;;;;5.08;60.76;99491.91;1551971;92;20976;-75
2022/02/20 08:20:20;;;;;;;10.45;2.65;;;;;;;5.11;59.39;99471.47;1578147;89;21542;-76
2022/02/20 08:22:46;;;;;;;4.10;2.58;;;;;;;5.12;59.62;99465.93;1536733;92;21167;-74
2022/02/20 08:25:15;;;;;;;3.30;2.47;;;;;;;5.16;59.91;99465.78;1540287;92;21777;-75
2022/02/20 08:27:41;;;;;;;3.12;2.20;;;;;;;5.23;59.87;99478.52;1559181;90;21055;-75
2022/02/20 08:30:11;;;;;;;5.10;2.52;;;;;;;5.28;59.62;99496.00;1580214;90;21576;-75
2022/02/20 08:32:38;;;;;;;4.60;2.45;;;;;;;5.33;58.87;99462.52;1538148;90;21652;-76
2022/02/20 08:35:08;;;;;;;4.37;2.70;;;;;;;5.39;58.81;99470.98;1560840;90;21157;-76
2022/02/20 08:37:43;;;;;;;4.17;2.42;;;;;;;5.42;58.61;99458.55;1565171;90;21123;-75
2022/02/20 08:40:12;;;;;;;4.72;2.85;;;;;;;5.46;58.54;99479.22;1589620;89;20987;-78
2022/02/20 08:42:38;;;;;;;3.30;2.70;;;;;;;5.49;57.85;99473.44;1579718;90;21081;-76
2022/02/20 08:45:07;;;;;;;4.10;2.47;;;;;;;5.53;58.14;99475.95;1582819;89;21037;-75
2022/02/20 08:47:35;;;;;;;4.05;2.70;;;;;;;5.58;57.78;99485.95;1582128;90;21635;-76
2022/02/20 08:50:04;;;;;;;6.65;3.70;;;;;;;5.62;57.92;99473.27;1580124;90;21094;-74
2022/02/20 08:52:32;;;;;;;4.22;2.72;;;;;;;5.65;57.92;99476.85;1560829;90;21143;-75
2022/02/20 08:54:58;;;;;;;4.97;3.37;;;;;;;5.70;57.86;99493.00;1584424;90;21113;-77
2022/02/20 08:57:26;;;;;;;7.65;3.42;;;;;;;5.76;57.92;99483.78;1577487;90;21094;-76
2022/02/20 08:59:54;;;;;;;7.05;2.70;;;;;;;5.78;57.67;99478.53;1580690;90;21071;-75
2022/02/20 09:02:21;;;;;;;6.33;3.22;;;;;;;5.84;57.66;99479.50;1580625;89;21168;-75
2022/02/20 09:04:48;;;;;;;7.80;4.45;;;;;;;5.86;57.78;99482.22;1580249;90;20968;-76
2022/02/20 09:07:14;;;;;;;5.95;3.12;;;;;;;5.91;57.93;99484.25;1580397;90;20983;-75
2022/02/20 09:09:41;;;;;;;7.30;2.47;;;;;;;5.94;57.62;99477.14;1560960;90;21581;-77
2022/02/20 09:12:08;;;;;;;7.22;2.85;;;;;;;5.96;57.12;99471.86;1582809;90;21085;-78
2022/02/20 09:14:35;;;;;;;6.95;2.50;;;;;;;6.00;57.19;99486.91;1581042;90;21175;-75
2022/02/20 09:17:04;;;;;;;4.37;2.67;;;;;;;6.03;56.73;99476.61;1560773;90;21583;-72
2022/02/20 09:19:30;;;;;;;4.95;2.65;;;;;;;6.07;56.39;99486.31;1560300;90;21534;-72
2022/02/20 09:21:57;;;;;;;6.30;3.50;;;;;;;6.11;56.15;99488.30;1580028;90;22266;-72
2022/02/20 09:24:23;;;;;;;10.65;5.37;;;;;;;6.18;56.36;99491.41;1579817;90;21120;-74
2022/02/20 09:26:50;;;;;;;6.35;3.10;;;;;;;6.24;55.64;99489.16;1580056;90;21777;-75
2022/02/20 09:29:18;;;;;;;4.47;3.20;;;;;;;6.30;55.91;99489.07;1580190;90;21010;-73
2022/02/20 09:31:44;;;;;;;8.58;3.65;;;;;;;6.39;55.70;99504.25;1580506;90;21523;-75
2022/02/20 09:34:11;;;;;;;6.60;3.00;;;;;;;6.46;55.76;99488.95;1580502;90;21073;-78
2022/02/20 09:36:39;;;;;;;5.12;3.60;;;;;;;6.54;55.19;99498.78;1580237;90;21040;-76
2022/02/20 09:39:06;;;;;;;7.03;3.20;;;;;;;6.58;54.52;99488.45;1581991;90;21113;-78
2022/02/20 09:41:32;;;;;;;4.08;2.67;;;;;;;6.59;54.77;99491.42;1580393;90;21075;-74
2022/02/20 09:44:00;;;;;;;7.00;2.90;;;;;;;6.61;54.28;99493.36;1551876;90;21148;-75
2022/02/20 09:46:28;;;;;;;5.65;3.20;;;;;;;6.63;54.38;99509.14;1580262;90;21016;-74
2022/02/20 09:48:58;;;;;;;3.35;2.60;;;;;;;6.65;54.21;99497.72;1580573;90;21236;-75
2022/02/20 09:51:26;;;;;;;9.23;3.60;;;;;;;6.66;54.44;99510.04;1561063;90;21104;-75
2022/02/20 09:53:53;;;;;;;7.28;4.53;;;;;;;6.67;54.78;99499.62;1580084;90;21024;-76
2022/02/20 09:56:19;;;;;;;4.72;3.02;;;;;;;6.62;54.95;99492.29;1584431;89;20979;-77
2022/02/20 09:58:45;;;;;;;24.50;3.50;;;;;;;6.63;55.41;99500.61;1580639;89;21057;-77
2022/02/20 10:01:14;;;;;;;9.20;3.83;;;;;;;6.63;55.56;99497.11;1561078;90;21142;-79
2022/02/20 10:03:42;;;;;;;4.70;3.40;;;;;;;6.67;55.73;99496.95;1572132;90;21115;-77
2022/02/20 10:06:12;;;;;;;5.15;3.35;;;;;;;6.72;55.24;99501.90;1593466;89;21008;-78
2022/02/20 10:08:50;;;;;;;5.42;3.70;;;;;;;6.77;55.17;99483.31;1577214;90;21087;-77
2022/02/20 10:11:26;;;;;;;4.50;3.70;;;;;;;6.83;55.17;99478.39;1584499;90;21580;-76
2022/02/20 10:13:58;;;;;;;6.45;3.83;;;;;;;6.93;54.71;99473.81;1578731;90;21145;-78
2022/02/20 10:16:27;;;;;;;4.05;3.22;;;;;;;6.98;53.86;99470.74;1581452;89;22488;-77
2022/02/20 10:19:00;;;;;;;5.85;3.17;;;;;;;7.04;53.46;99464.18;1569731;89;21805;-78
2022/02/20 10:21:50;;;;;;;6.03;3.37;;;;;;;7.08;53.12;99480.05;1556632;91;21574;-78
2022/02/20 10:24:35;;;;;;;6.97;3.98;;;;;;;7.11;53.02;99474.22;1525959;92;21159;-80
2022/02/20 10:27:20;;;;;;;5.28;4.37;;;;;;;7.10;52.80;99471.28;1567232;89;21052;-79
2022/02/20 10:30:16;;;;;;;8.58;4.12;;;;;;;7.08;52.60;99466.67;1605904;89;21212;-79
2022/02/20 10:32:47;;;;;;;5.65;3.37;;;;;;;7.05;52.44;99451.89;1560124;89;21640;-84
2022/02/20 10:35:16;;;;;;;8.18;4.40;;;;;;;7.06;52.24;99470.09;1612750;89;21050;-81
2022/02/20 10:37:45;;;;;;;6.20;4.40;;;;;;;7.06;52.22;99451.38;1597622;89;21146;-87
2022/02/20 10:40:30;;;;;;;6.17;3.15;;;;;;;7.09;52.14;99438.89;1581709;90;21416;-86
2022/02/20 10:42:59;;;;;;;11.05;3.87;;;;;;;7.13;51.84;99430.17;1561134;90;21122;-80
2022/02/20 10:45:38;;;;;;;8.58;4.00;;;;;;;7.20;51.58;99434.04;1580563;89;21063;-77
2022/02/20 10:48:18;;;;;;;3.42;3.10;;;;;;;7.29;51.50;99436.13;1580526;90;21623;-83
2022/02/20 10:50:59;;;;;;;5.08;3.60;;;;;;;7.38;51.24;99443.30;1581549;90;21010;-81
2022/02/20 10:53:33;;;;;;;6.15;3.67;;;;;;;7.41;51.04;99438.80;1580507;90;21155;-86
2022/02/20 10:56:02;;;;;;;8.18;3.62;;;;;;;7.43;51.03;99430.81;1561654;90;21176;-83
2022/02/20 10:58:34;;;;;;;5.87;4.33;;;;;;;7.50;50.91;99452.09;1581583;90;21017;-84
2022/02/20 11:01:03;;;;;;;5.25;3.52;;;;;;;7.59;50.33;99420.42;1580523;90;21100;-83
2022/02/20 11:03:34;;;;;;;5.40;3.83;;;;;;;7.63;50.24;99421.05;1580754;90;21085;-82
2022/02/20 11:06:05;;;;;;;8.38;3.85;;;;;;;7.72;50.28;99418.84;1580726;90;21703;-82
2022/02/20 11:08:32;;;;;;;5.45;3.15;;;;;;;7.84;49.62;99441.02;1561867;90;21162;-83
2022/02/20 11:11:36;;;;;;;6.08;3.50;;;;;;;7.86;49.10;99418.84;1581606;90;21052;-79
2022/02/20 11:13:28;;;;;;;7.90;4.55;;;;;;;7.81;48.97;99409.38;1580624;90;21066;-84
2022/02/20 11:15:57;;;;;;;4.22;3.50;;;;;;;7.82;49.50;99423.02;1580290;90;21059;-86
2022/02/20 11:18:34;;;;;;;6.10;3.40;;;;;;;7.86;49.51;99427.66;1580614;90;21019;-82
2022/02/20 11:21:02;;;;;;;5.72;3.55;;;;;;;7.91;48.85;99421.63;1580618;90;21177;-82
2022/02/20 11:23:31;;;;;;;6.90;3.95;;;;;;;7.88;48.56;99402.81;1542498;90;21036;-82
2022/02/20 11:26:01;;;;;;;8.55;3.98;;;;;;;7.91;48.32;99406.89;1561202;90;21027;-82
2022/02/20 11:28:29;;;;;;;8.88;3.70;;;;;;;7.96;47.88;99394.13;1580458;90;21105;-85
2022/02/20 11:30:56;;;;;;;7.55;4.12;;;;;;;8.06;47.66;99394.28;1580359;90;21182;-85
2022/02/20 11:33:22;;;;;;;7.87;4.22;;;;;;;8.18;47.43;99387.83;1580555;90;21164;-77
2022/02/20 11:35:50;;;;;;;4.67;4.03;;;;;;;8.27;47.59;99384.22;1561314;90;21014;-77
2022/02/20 11:38:22;;;;;;;7.87;4.92;;;;;;;8.29;46.56;99370.07;1580389;90;21042;-78
2022/02/20 11:40:59;;;;;;;8.60;3.95;;;;;;;8.30;46.81;99370.36;1580611;90;21083;-78
2022/02/20 11:43:45;;;;;;;5.53;3.58;;;;;;;8.31;46.76;99360.75;1580395;90;21557;-77
2022/02/20 11:46:24;;;;;;;7.50;3.58;;;;;;;8.39;46.86;99366.77;1557920;90;21792;-77
2022/02/20 11:49:16;;;;;;;3.50;2.75;;;;;;;8.42;45.93;99359.05;1556147;92;21668;-78
2022/02/20 11:51:39;;;;;;;3.85;2.98;;;;;;;8.46;45.26;99350.80;1556071;91;21233;-78
2022/02/20 11:54:19;;;;;;;5.08;3.27;;;;;;;8.50;45.30;99339.88;1556256;91;21079;-78